createdAt,value
2018-04-09T00:01:41.704Z,13.40
2018-04-09T00:04:09.279Z,12.10
2018-04-09T00:06:37.608Z,12.20
2018-04-09T00:09:06.079Z,12.53
2018-04-09T00:11:33.641Z,15.40
2018-04-09T00:14:01.224Z,13.00
2018-04-09T00:16:28.782Z,11.50
2018-04-09T00:18:56.347Z,10.90
2018-04-09T00:21:23.921Z,11.30
2018-04-09T00:23:51.480Z,11.93
2018-04-09T00:26:19.058Z,10.10
2018-04-09T00:28:47.381Z,11.73
2018-04-09T00:31:14.965Z,10.80
2018-04-09T00:33:42.520Z,10.53
2018-04-09T00:36:10.092Z,12.10
2018-04-09T00:38:37.638Z,11.37
2018-04-09T00:41:05.216Z,11.77
2018-04-09T00:43:32.771Z,10.40
2018-04-09T00:46:00.341Z,12.53
2018-04-09T00:48:27.884Z,11.40
2018-04-09T00:50:55.464Z,11.03
2018-04-09T00:56:25.828Z,10.97
2018-04-09T00:58:53.394Z,11.90
2018-04-09T01:01:20.977Z,10.67
2018-04-09T01:03:48.533Z,10.93
2018-04-09T01:06:16.105Z,10.90
2018-04-09T01:08:43.664Z,12.00
2018-04-09T01:11:11.251Z,11.73
2018-04-09T01:13:40.317Z,13.03
2018-04-09T01:16:07.885Z,12.53
2018-04-09T01:18:35.439Z,11.60
2018-04-09T01:21:03.016Z,12.40
2018-04-09T01:23:30.560Z,11.53
2018-04-09T01:25:58.132Z,12.33
2018-04-09T01:28:25.681Z,11.60
2018-04-09T01:30:53.252Z,11.70
2018-04-09T01:33:20.792Z,10.37
2018-04-09T01:35:48.372Z,12.50
2018-04-09T01:38:15.917Z,12.80
2018-04-09T01:40:43.469Z,12.40
2018-04-09T01:43:11.038Z,11.20
2018-04-09T01:45:39.356Z,12.23
2018-04-09T01:48:07.700Z,13.87
2018-04-09T01:50:35.239Z,12.80
2018-04-09T01:53:02.852Z,12.20
2018-04-09T01:55:30.393Z,12.40
2018-04-09T01:57:57.980Z,12.57
2018-04-09T02:00:26.301Z,12.90
2018-04-09T02:02:53.879Z,13.00
2018-04-09T02:05:21.428Z,13.00
2018-04-09T02:07:48.996Z,11.87
2018-04-09T02:10:16.552Z,12.10
2018-04-09T02:12:44.114Z,12.50
2018-04-09T02:15:12.436Z,12.37
2018-04-09T02:17:40.771Z,12.90
2018-04-09T02:20:08.333Z,12.87
2018-04-09T02:22:35.913Z,13.30
2018-04-09T02:25:03.466Z,12.17
2018-04-09T02:27:31.035Z,12.87
2018-04-09T02:29:58.588Z,12.70
2018-04-09T02:32:26.168Z,12.40
2018-04-09T02:34:53.731Z,12.43
2018-04-09T02:37:22.049Z,12.07
2018-04-09T02:39:49.627Z,12.87
2018-04-09T02:42:17.189Z,11.90
2018-04-09T02:44:44.820Z,12.73
2018-04-09T02:47:13.117Z,12.50
2018-04-09T02:49:40.700Z,12.37
2018-04-09T02:52:09.234Z,12.67
2018-04-09T02:54:36.815Z,11.73
2018-04-09T02:57:04.360Z,11.77
2018-04-09T02:59:31.932Z,12.70
2018-04-09T03:01:59.520Z,12.13
2018-04-09T03:04:27.142Z,12.43
2018-04-09T03:06:54.717Z,11.93
2018-04-09T03:09:22.329Z,12.57
2018-04-09T03:11:50.633Z,13.17
2018-04-09T03:14:18.202Z,13.97
2018-04-09T03:16:45.752Z,15.87
2018-04-09T03:19:13.327Z,14.47
2018-04-09T03:21:41.493Z,15.30
2018-04-09T03:24:09.068Z,12.80
2018-04-09T03:26:36.630Z,12.80
2018-04-09T03:29:04.199Z,13.43
2018-04-09T03:31:31.747Z,14.00
2018-04-09T03:33:59.316Z,15.23
2018-04-09T03:36:26.859Z,15.43
2018-04-09T03:38:54.435Z,14.60
2018-04-09T03:41:21.991Z,13.10
2018-04-09T03:43:49.563Z,14.20
2018-04-09T03:46:17.117Z,14.03
2018-04-09T03:48:44.697Z,14.13
2018-04-09T03:51:13.025Z,12.20
2018-04-09T03:53:40.600Z,11.50
2018-04-09T03:56:08.153Z,12.60
2018-04-09T03:58:35.736Z,12.93
2018-04-09T04:01:03.292Z,12.43
2018-04-09T04:03:30.835Z,12.87
2018-04-09T04:05:58.407Z,12.33
2018-04-09T04:08:25.946Z,11.93
2018-04-09T04:10:53.533Z,12.03
2018-04-09T04:13:21.083Z,11.80
2018-04-09T04:16:00.364Z,13.40
2018-04-09T04:21:43.336Z,13.90
2018-04-09T04:24:10.893Z,14.57
2018-04-09T04:26:38.463Z,13.43
2018-04-09T04:29:05.999Z,15.70
2018-04-09T04:31:33.577Z,13.33
2018-04-09T04:34:01.124Z,12.67
2018-04-09T04:36:28.698Z,12.67
2018-04-09T04:38:56.258Z,14.00
2018-04-09T04:41:23.852Z,12.13
2018-04-09T04:43:51.406Z,15.03
2018-04-09T04:46:18.962Z,17.37
2018-04-09T04:48:46.513Z,12.33
2018-04-09T04:51:14.097Z,12.00
2018-04-09T04:53:41.643Z,12.50
2018-04-09T04:56:09.212Z,13.80
2018-04-09T04:58:36.769Z,13.60
2018-04-09T05:01:04.369Z,14.80
2018-04-09T05:03:31.911Z,14.77
2018-04-09T05:06:00.253Z,17.90
2018-04-09T05:08:27.809Z,18.43
2018-04-09T05:10:55.379Z,12.97
2018-04-09T05:13:22.946Z,13.60
2018-04-09T05:15:50.507Z,12.90
2018-04-09T05:18:18.069Z,12.63
2018-04-09T05:20:45.656Z,11.87
2018-04-09T05:23:13.977Z,12.90
2018-04-09T05:25:41.541Z,12.50
2018-04-09T05:28:09.102Z,14.77
2018-04-09T05:30:36.664Z,14.60
2018-04-09T05:33:04.999Z,13.70
2018-04-09T05:35:32.556Z,13.90
2018-04-09T05:38:00.139Z,14.80
2018-04-09T05:40:27.698Z,15.00
2018-04-09T05:42:55.262Z,14.63
2018-04-09T05:45:22.904Z,16.80
2018-04-09T05:47:50.471Z,13.87
2018-04-09T05:50:18.027Z,14.27
2018-04-09T05:52:45.618Z,15.07
2018-04-09T05:55:13.159Z,15.50
2018-04-09T05:57:40.746Z,16.10
2018-04-09T06:00:08.300Z,21.77
2018-04-09T06:02:35.876Z,26.23
2018-04-09T06:05:03.425Z,21.80
2018-04-09T06:07:31.005Z,18.47
2018-04-09T06:09:58.564Z,15.13
2018-04-09T06:12:26.134Z,15.00
2018-04-09T06:14:54.448Z,15.40
2018-04-09T06:17:22.123Z,17.50
2018-04-09T06:19:49.778Z,15.63
2018-04-09T06:22:17.349Z,17.83
2018-04-09T06:24:44.896Z,14.53
2018-04-09T06:27:13.381Z,14.70
2018-04-09T06:29:40.933Z,16.27
2018-04-09T06:32:08.518Z,16.13
2018-04-09T06:34:36.060Z,16.80
2018-04-09T06:37:03.642Z,15.60
2018-04-09T06:39:31.208Z,14.80
2018-04-09T06:41:58.793Z,15.57
2018-04-09T06:44:27.118Z,14.73
2018-04-09T06:46:54.698Z,15.47
2018-04-09T06:49:22.247Z,14.77
2018-04-09T06:51:49.803Z,14.70
2018-04-09T06:54:17.378Z,15.87
2018-04-09T06:56:44.936Z,17.30
2018-04-09T06:59:12.521Z,16.17
2018-04-09T07:01:40.077Z,16.53
2018-04-09T07:04:07.652Z,16.60
2018-04-09T07:06:35.967Z,15.97
2018-04-09T07:09:03.602Z,17.50
2018-04-09T07:11:31.129Z,18.30
2018-04-09T07:13:58.717Z,18.33
2018-04-09T07:16:27.037Z,17.23
2018-04-09T07:18:54.624Z,17.20
2018-04-09T07:21:22.185Z,15.10
2018-04-09T07:23:49.768Z,16.87
2018-04-09T07:26:18.089Z,15.50
2018-04-09T07:28:45.662Z,17.43
2018-04-09T07:31:13.225Z,15.93
2018-04-09T07:33:40.791Z,17.67
2018-04-09T07:36:08.346Z,17.03
2018-04-09T07:38:35.921Z,18.33
2018-04-09T07:41:03.493Z,17.40
2018-04-09T07:43:31.849Z,17.43
2018-04-09T07:48:33.391Z,17.97
2018-04-09T07:51:00.949Z,19.13
2018-04-09T07:53:28.529Z,17.50
2018-04-09T07:55:56.093Z,17.13
2018-04-09T07:58:23.646Z,17.53
2018-04-09T08:00:51.242Z,17.73
2018-04-09T08:03:19.565Z,15.80
2018-04-09T08:05:47.148Z,16.20
2018-04-09T08:08:14.691Z,17.33
2018-04-09T08:10:42.266Z,16.00
2018-04-09T08:13:09.839Z,16.90
2018-04-09T08:15:37.405Z,17.13
2018-04-09T08:18:04.964Z,17.27
2018-04-09T08:20:32.556Z,16.60
2018-04-09T08:23:00.120Z,15.13
2018-04-09T08:25:27.703Z,15.37
2018-04-09T08:27:55.292Z,16.90
2018-04-09T08:30:22.872Z,15.93
2018-04-09T08:32:50.439Z,18.70
2018-04-09T08:35:18.787Z,16.90
2018-04-09T08:37:46.348Z,15.97
2018-04-09T08:40:13.921Z,16.33
2018-04-09T08:42:41.465Z,16.53
2018-04-09T08:45:09.043Z,16.20
2018-04-09T08:47:36.591Z,14.70
2018-04-09T08:50:04.166Z,15.53
2018-04-09T08:52:31.720Z,15.00
2018-04-09T08:54:59.304Z,15.10
2018-04-09T08:57:26.869Z,15.13
2018-04-09T08:59:54.446Z,16.60
2018-04-09T09:02:22.000Z,16.80
2018-04-09T09:04:49.573Z,17.20
2018-04-09T09:07:17.128Z,16.37
2018-04-09T09:09:44.683Z,17.10
2018-04-09T09:12:12.264Z,16.50
2018-04-09T09:14:39.820Z,18.57
2018-04-09T09:17:07.402Z,17.63
2018-04-09T09:19:34.964Z,22.30
2018-04-09T09:22:02.560Z,29.60
2018-04-09T09:24:30.912Z,27.60
2018-04-09T09:26:58.479Z,25.07
2018-04-09T09:29:26.072Z,22.20
2018-04-09T09:31:54.391Z,22.27
2018-04-09T09:34:21.953Z,19.50
2018-04-09T09:36:49.529Z,19.53
2018-04-09T09:39:17.096Z,18.30
2018-04-09T09:41:45.464Z,17.60
2018-04-09T09:44:13.021Z,17.53
2018-04-09T09:46:40.611Z,17.60
2018-04-09T09:49:08.986Z,17.33
2018-04-09T09:51:36.527Z,16.83
2018-04-09T09:54:04.091Z,17.37
2018-04-09T09:56:31.670Z,15.57
2018-04-09T09:58:59.988Z,15.57
2018-04-09T10:01:27.575Z,13.87
2018-04-09T10:03:55.132Z,14.27
2018-04-09T10:06:22.687Z,13.67
2018-04-09T10:08:51.041Z,10.80
2018-04-09T10:11:18.582Z,11.80
2018-04-09T10:13:46.156Z,10.77
2018-04-09T10:16:13.718Z,9.77
2018-04-09T10:18:41.300Z,11.20
2018-04-09T10:21:08.836Z,11.53
2018-04-09T10:23:36.403Z,13.40
2018-04-09T10:26:03.953Z,13.63
2018-04-09T10:28:31.538Z,11.67
2018-04-09T10:30:59.093Z,13.73
2018-04-09T10:33:26.669Z,11.97
2018-04-09T10:35:54.220Z,13.00
2018-04-09T10:38:21.797Z,14.33
2018-04-09T10:40:49.356Z,12.30
2018-04-09T10:43:16.926Z,11.07
2018-04-09T10:45:45.250Z,11.87
2018-04-09T10:48:12.837Z,11.60
2018-04-09T10:50:40.442Z,12.10
2018-04-09T10:53:08.755Z,12.30
2018-04-09T10:55:36.354Z,11.07
2018-04-09T10:58:03.920Z,11.80
2018-04-09T11:00:31.476Z,12.37
2018-04-09T11:02:59.053Z,11.57
2018-04-09T11:05:27.381Z,10.47
2018-04-09T11:07:54.969Z,11.17
2018-04-09T11:10:22.533Z,10.30
2018-04-09T11:12:50.085Z,10.97
2018-04-09T11:15:17.743Z,10.30
2018-04-09T11:17:45.259Z,9.13
2018-04-09T11:20:12.831Z,9.40
2018-04-09T11:22:40.374Z,8.27
2018-04-09T11:25:07.948Z,6.90
2018-04-09T11:27:35.499Z,6.67
2018-04-09T11:30:03.073Z,6.70
2018-04-09T11:32:30.615Z,6.73
2018-04-09T11:34:58.183Z,7.63
2018-04-09T11:37:25.722Z,6.33
2018-04-09T11:39:53.290Z,6.17
2018-04-09T11:42:20.852Z,7.40
2018-04-09T11:44:48.423Z,7.00
2018-04-09T11:47:15.976Z,7.23
2018-04-09T11:49:43.545Z,7.60
2018-04-09T11:52:11.095Z,6.13
2018-04-09T11:54:38.678Z,7.27
2018-04-09T11:57:06.226Z,6.20
2018-04-09T11:59:33.811Z,6.33
2018-04-09T12:02:01.368Z,6.20
2018-04-09T12:04:28.958Z,6.40
2018-04-09T12:06:57.288Z,6.10
2018-04-09T12:09:24.835Z,6.97
2018-04-09T12:11:52.412Z,5.63
2018-04-09T12:14:19.949Z,4.70
2018-04-09T12:16:47.517Z,5.20
2018-04-09T12:19:15.057Z,5.07
2018-04-09T12:21:42.645Z,4.97
2018-04-09T12:24:10.196Z,5.30
2018-04-09T12:26:37.794Z,5.43
2018-04-09T12:29:05.348Z,6.37
2018-04-09T12:31:32.918Z,5.17
2018-04-09T12:34:00.463Z,5.47
2018-04-09T12:36:28.031Z,5.40
2018-04-09T12:38:55.580Z,4.97
2018-04-09T12:41:23.150Z,4.60
2018-04-09T12:43:50.699Z,4.57
2018-04-09T12:46:18.268Z,6.30
2018-04-09T12:48:45.822Z,5.30
2018-04-09T12:51:13.402Z,5.20
2018-04-09T12:53:40.947Z,5.07
2018-04-09T12:56:08.506Z,5.63
2018-04-09T12:58:36.043Z,6.00
2018-04-09T13:03:31.068Z,5.53
2018-04-09T13:05:59.374Z,5.03
2018-04-09T13:08:27.712Z,5.40
2018-04-09T13:10:55.266Z,5.97
2018-04-09T13:13:22.845Z,5.73
2018-04-09T13:15:50.395Z,6.43
2018-04-09T13:18:17.970Z,6.33
2018-04-09T13:20:45.501Z,5.80
2018-04-09T13:23:13.070Z,6.50
2018-04-09T13:25:40.625Z,6.07
2018-04-09T13:28:08.190Z,5.33
2018-04-09T13:30:35.745Z,6.27
2018-04-09T13:33:03.330Z,6.20
2018-04-09T13:35:30.876Z,5.93
2018-04-09T13:37:58.489Z,5.87
2018-04-09T13:40:26.040Z,6.93
2018-04-09T13:42:54.378Z,5.70
2018-04-09T13:45:26.768Z,5.73
2018-04-09T13:47:54.347Z,6.23
2018-04-09T13:50:21.903Z,6.40
2018-04-09T13:52:49.493Z,7.30
2018-04-09T13:55:17.034Z,6.67
2018-04-09T13:57:44.609Z,6.07
2018-04-09T14:00:12.145Z,6.13
2018-04-09T14:02:40.453Z,6.30
2018-04-09T14:05:08.053Z,5.53
2018-04-09T14:07:35.645Z,6.33
2018-04-09T14:10:03.238Z,6.80
2018-04-09T14:12:30.787Z,6.57
2018-04-09T14:14:58.365Z,6.40
2018-04-09T14:17:25.915Z,7.00
2018-04-09T14:19:53.475Z,6.83
2018-04-09T14:22:21.019Z,5.93
2018-04-09T14:24:48.591Z,5.70
2018-04-09T14:27:16.143Z,6.20
2018-04-09T14:29:43.819Z,6.43
2018-04-09T14:32:11.370Z,6.23
2018-04-09T14:34:38.951Z,6.60
2018-04-09T14:37:06.484Z,6.43
2018-04-09T14:39:34.049Z,6.60
2018-04-09T14:42:01.600Z,6.80
2018-04-09T14:44:29.171Z,6.27
2018-04-09T14:46:56.714Z,6.90
2018-04-09T14:49:24.297Z,7.40
2018-04-09T14:51:51.852Z,6.80
2018-04-09T14:54:19.435Z,6.53
2018-04-09T14:56:47.002Z,6.90
2018-04-09T14:59:14.586Z,6.80
2018-04-09T15:01:42.914Z,5.57
2018-04-09T15:04:10.520Z,5.30
2018-04-09T15:06:38.092Z,6.20
2018-04-09T15:09:06.410Z,5.63
2018-04-09T15:11:33.995Z,5.80
2018-04-09T15:14:02.351Z,5.60
2018-04-09T15:16:29.927Z,5.60
2018-04-09T15:18:57.475Z,5.07
2018-04-09T15:21:25.060Z,4.70
2018-04-09T15:23:52.619Z,4.73
2018-04-09T15:26:20.180Z,4.90
2018-04-09T15:28:47.733Z,4.80
2018-04-09T15:31:15.307Z,4.50
2018-04-09T15:33:42.874Z,4.70
2018-04-09T15:36:10.438Z,4.10
2018-04-09T15:38:38.756Z,3.93
2018-04-09T15:41:06.328Z,4.50
2018-04-09T15:43:33.884Z,3.30
2018-04-09T15:46:01.450Z,2.87
2018-04-09T15:48:28.985Z,2.93
2018-04-09T15:50:56.552Z,2.93
2018-04-09T15:53:24.099Z,3.07
2018-04-09T15:55:51.679Z,2.70
2018-04-09T15:58:19.218Z,2.70
2018-04-09T16:00:46.808Z,3.53
2018-04-09T16:03:14.347Z,3.27
2018-04-09T16:05:41.900Z,4.00
2018-04-09T16:08:09.446Z,3.30
2018-04-09T16:10:37.778Z,3.20
2018-04-09T16:13:05.355Z,3.30
2018-04-09T16:15:32.917Z,3.90
2018-04-09T16:18:05.286Z,4.90
2018-04-09T16:20:32.858Z,5.20
2018-04-09T16:23:01.199Z,5.03
2018-04-09T16:25:29.501Z,5.33
2018-04-09T16:27:57.070Z,3.40
2018-04-09T16:30:24.620Z,3.20
2018-04-09T16:32:52.172Z,3.10
2018-04-09T16:35:19.766Z,3.83
2018-04-09T16:37:48.098Z,6.33
2018-04-09T16:40:15.641Z,4.80
2018-04-09T16:42:43.206Z,4.87
2018-04-09T16:45:10.749Z,4.03
2018-04-09T16:47:38.332Z,4.40
2018-04-09T16:50:05.874Z,3.67
2018-04-09T16:52:33.447Z,3.53
2018-04-09T16:55:01.003Z,3.70
2018-04-09T16:57:28.590Z,3.50
2018-04-09T16:59:57.635Z,4.00
2018-04-09T17:02:25.332Z,4.30
2018-04-09T17:04:52.980Z,4.10
2018-04-09T17:07:20.558Z,4.30
2018-04-09T17:09:48.094Z,4.67
2018-04-09T17:12:15.657Z,4.77
2018-04-09T17:14:43.199Z,5.67
2018-04-09T17:17:10.746Z,5.60
2018-04-09T17:19:38.311Z,9.50
2018-04-09T17:22:05.887Z,16.10
2018-04-09T17:24:33.467Z,24.33
2018-04-09T17:27:01.038Z,28.10
2018-04-09T17:29:28.604Z,23.77
2018-04-09T17:31:56.164Z,22.80
2018-04-09T17:34:23.755Z,19.70
2018-04-09T17:36:52.070Z,20.80
2018-04-09T17:39:19.638Z,16.00
2018-04-09T17:41:48.002Z,13.87
2018-04-09T17:44:15.575Z,11.67
2018-04-09T17:46:43.121Z,10.60
2018-04-09T17:49:10.692Z,9.20
2018-04-09T17:51:38.232Z,7.50
2018-04-09T17:54:05.800Z,8.20
2018-04-09T17:56:33.339Z,7.70
2018-04-09T17:59:00.902Z,7.97
2018-04-09T18:01:28.482Z,6.93
2018-04-09T18:03:56.037Z,7.20
2018-04-09T18:06:23.699Z,7.57
2018-04-09T18:08:51.268Z,6.20
2018-04-09T18:11:18.799Z,6.60
2018-04-09T18:13:46.380Z,6.60
2018-04-09T18:16:13.927Z,7.30
2018-04-09T18:18:41.497Z,7.10
2018-04-09T18:21:09.065Z,6.50
2018-04-09T18:23:36.601Z,6.70
2018-04-09T18:26:04.209Z,5.90
2018-04-09T18:28:31.753Z,6.47
2018-04-09T18:30:59.325Z,5.77
2018-04-09T18:33:26.861Z,6.13
2018-04-09T18:35:54.418Z,5.30
2018-04-09T18:38:21.952Z,5.27
2018-04-09T18:40:49.526Z,4.87
2018-04-09T18:43:17.065Z,5.97
2018-04-09T18:45:45.425Z,4.90
2018-04-09T18:48:13.758Z,6.23
2018-04-09T18:50:41.323Z,7.33
2018-04-09T18:53:08.880Z,6.87
2018-04-09T18:55:36.459Z,6.43
2018-04-09T18:58:04.118Z,6.83
2018-04-09T19:00:31.796Z,5.80
2018-04-09T19:02:59.444Z,5.70
2018-04-09T19:05:27.802Z,6.57
2018-04-09T19:07:55.351Z,6.67
2018-04-09T19:10:22.920Z,6.90
2018-04-09T19:12:50.461Z,9.03
2018-04-09T19:15:18.045Z,8.07
2018-04-09T19:17:45.595Z,8.60
2018-04-09T19:20:13.168Z,10.47
2018-04-09T19:22:40.714Z,21.30
2018-04-09T19:25:08.268Z,18.83
2018-04-09T19:27:35.841Z,15.40
2018-04-09T19:30:03.410Z,10.63
2018-04-09T19:32:30.974Z,8.67
2018-04-09T19:35:04.293Z,8.40
2018-04-09T19:37:38.232Z,8.63
2018-04-09T19:40:11.573Z,7.70
2018-04-09T19:42:39.152Z,7.80
2018-04-09T19:45:06.721Z,7.93
2018-04-09T19:47:35.057Z,8.80
2018-04-09T19:50:02.589Z,7.73
2018-04-09T19:52:30.166Z,9.53
2018-04-09T19:54:57.717Z,8.40
2018-04-09T19:57:25.318Z,9.30
2018-04-09T19:59:52.887Z,10.93
2018-04-09T20:02:20.464Z,9.83
2018-04-09T20:04:48.780Z,9.50
2018-04-09T20:07:16.355Z,10.47
2018-04-09T20:09:43.898Z,9.70
2018-04-09T20:12:11.464Z,10.63
2018-04-09T20:14:39.006Z,10.00
2018-04-09T20:17:06.677Z,10.20
2018-04-09T20:19:34.219Z,11.10
2018-04-09T20:22:01.814Z,11.90
2018-04-09T20:24:29.366Z,12.10
2018-04-09T20:26:56.930Z,10.50
2018-04-09T20:29:24.482Z,10.40
2018-04-09T20:31:52.055Z,11.83
2018-04-09T20:34:19.599Z,11.77
2018-04-09T20:36:47.181Z,12.80
2018-04-09T20:39:14.746Z,11.33
2018-04-09T20:41:42.287Z,12.07
2018-04-09T20:44:09.863Z,11.10
2018-04-09T20:46:37.418Z,11.43
2018-04-09T20:49:04.985Z,11.07
2018-04-09T20:51:32.534Z,10.87
2018-04-09T20:54:00.101Z,11.13
2018-04-09T20:56:28.448Z,11.60
2018-04-09T20:58:56.026Z,12.23
2018-04-09T21:01:23.580Z,10.67
2018-04-09T21:03:51.147Z,11.57
2018-04-09T21:06:18.714Z,11.40
2018-04-09T21:08:46.285Z,10.90
2018-04-09T21:11:13.831Z,10.70
2018-04-09T21:13:41.411Z,10.50
2018-04-09T21:16:08.959Z,9.80
2018-04-09T21:18:36.532Z,9.90
2018-04-09T21:21:04.148Z,9.93
2018-04-09T21:23:31.714Z,9.57
2018-04-09T21:25:59.267Z,10.30
2018-04-09T21:28:26.831Z,9.30
2018-04-09T21:30:54.391Z,9.80
2018-04-09T21:33:21.959Z,9.50
2018-04-09T21:35:49.538Z,10.30
2018-04-09T21:38:17.121Z,9.87
2018-04-09T21:40:45.431Z,9.60
2018-04-09T21:43:12.999Z,10.83
2018-04-09T21:45:40.558Z,19.20
2018-04-09T21:48:08.131Z,12.70
2018-04-09T21:50:35.682Z,10.80
2018-04-09T21:53:03.238Z,11.13
2018-04-09T21:55:30.805Z,9.47
2018-04-09T21:57:58.355Z,9.90
2018-04-09T22:00:25.918Z,10.37
2018-04-09T22:02:53.465Z,9.23
2018-04-09T22:05:21.055Z,8.87
2018-04-09T22:07:48.611Z,9.70
2018-04-09T22:10:16.169Z,10.20
2018-04-09T22:12:43.711Z,9.57
2018-04-09T22:15:11.272Z,9.30
2018-04-09T22:17:38.819Z,10.10
2018-04-09T22:20:06.372Z,9.97
2018-04-09T22:22:33.920Z,10.40
2018-04-09T22:25:02.278Z,11.50
2018-04-09T22:27:29.882Z,10.90
2018-04-09T22:29:57.508Z,10.13
2018-04-09T22:32:25.104Z,10.60
2018-04-09T22:34:52.677Z,9.97
2018-04-09T22:37:20.238Z,10.77
2018-04-09T22:39:47.806Z,11.20
2018-04-09T22:42:15.362Z,11.67
2018-04-09T22:44:42.935Z,12.33
2018-04-09T22:47:10.495Z,11.07
2018-04-09T22:49:38.067Z,11.50
2018-04-09T22:52:05.616Z,10.27
2018-04-09T22:54:33.188Z,10.07
2018-04-09T22:57:00.732Z,11.13
2018-04-09T22:59:28.280Z,11.00
2018-04-09T23:01:55.851Z,11.00
2018-04-09T23:04:23.398Z,11.60
2018-04-09T23:06:50.959Z,10.43
2018-04-09T23:09:18.496Z,11.67
2018-04-09T23:11:46.071Z,11.33
2018-04-09T23:14:13.611Z,10.40
2018-04-09T23:16:41.174Z,11.37
2018-04-09T23:19:08.715Z,12.40
2018-04-09T23:21:37.056Z,11.73
2018-04-09T23:24:04.598Z,11.27
2018-04-09T23:26:32.165Z,10.93
2018-04-09T23:28:59.706Z,12.13
2018-04-09T23:31:27.279Z,11.80
2018-04-09T23:33:54.832Z,11.70
2018-04-09T23:36:22.405Z,12.00
2018-04-09T23:38:49.943Z,12.00
2018-04-09T23:41:17.506Z,10.80
2018-04-09T23:43:45.046Z,11.17
2018-04-09T23:46:12.629Z,11.43
2018-04-09T23:48:40.180Z,11.23
2018-04-09T23:51:07.742Z,11.40
2018-04-09T23:53:35.296Z,10.80
2018-04-09T23:56:02.841Z,10.50
2018-04-09T23:58:30.423Z,10.60
